Time;durP1;ratioP1;P1;durP2;ratioP2;P2;SDS_P1;SDS_P2;PMS_P1;PMS_P2;Temp;Humidity;BMP_temperature;BMP_pressure;BME280_temperature;BME280_humidity;BME280_pressure;Samples;Min_cycle;Max_cycle;Signal;HPM_P1;HPM_P2
2023/04/17 00:01:32;;;;;;;21.20;13.30;;;10.80;1.00;;;;;;5007635;28;20666;-73
2023/04/17 00:03:58;;;;;;;24.03;13.40;;;10.90;1.00;;;;;;5008037;28;20434;-73
2023/04/17 00:06:26;;;;;;;19.40;13.87;;;10.90;1.00;;;;;;5007626;28;20167;-74
2023/04/17 00:08:51;;;;;;;18.07;12.47;;;10.90;1.00;;;;;;5010729;28;20189;-73
2023/04/17 00:11:17;;;;;;;21.33;13.70;;;10.90;1.00;;;;;;5005747;28;20433;-73
2023/04/17 00:13:43;;;;;;;16.73;12.63;;;10.80;1.00;;;;;;5009337;28;20186;-73
2023/04/17 00:16:12;;;;;;;19.97;13.33;;;10.80;1.00;;;;;;5007048;28;20190;-73
2023/04/17 00:18:38;;;;;;;20.07;13.80;;;10.70;1.00;;;;;;5009569;28;20560;-73
2023/04/17 00:21:04;;;;;;;17.33;13.20;;;10.70;1.00;;;;;;5005751;28;20457;-74
2023/04/17 00:23:30;;;;;;;21.53;14.37;;;10.70;1.00;;;;;;5009095;28;20460;-74
2023/04/17 00:25:55;;;;;;;18.77;13.43;;;10.70;1.00;;;;;;5005499;28;20202;-73
2023/04/17 00:28:21;;;;;;;19.73;14.20;;;10.60;1.00;;;;;;5008721;28;20265;-73
2023/04/17 00:30:46;;;;;;;20.10;13.43;;;10.60;1.00;;;;;;5007254;28;20678;-74
2023/04/17 00:33:12;;;;;;;20.67;14.00;;;10.70;1.00;;;;;;5007575;28;20556;-73
2023/04/17 00:35:37;;;;;;;19.93;13.90;;;10.60;1.00;;;;;;5006877;28;20202;-74
2023/04/17 00:38:03;;;;;;;18.60;13.27;;;10.60;1.00;;;;;;5007706;28;20194;-73
2023/04/17 00:40:29;;;;;;;19.60;14.20;;;10.60;1.00;;;;;;5011331;28;20240;-74
2023/04/17 00:43:01;;;;;;;20.20;14.63;;;10.60;1.00;;;;;;5014615;28;20170;-73
2023/04/17 00:45:27;;;;;;;20.90;14.20;;;10.60;1.00;;;;;;5011551;28;20194;-74
2023/04/17 00:47:54;;;;;;;21.43;13.93;;;10.50;1.00;;;;;;5013269;28;20426;-73
2023/04/17 00:50:19;;;;;;;19.63;13.67;;;10.50;1.00;;;;;;5009126;28;20456;-74
2023/04/17 00:52:46;;;;;;;24.50;14.60;;;10.50;1.00;;;;;;5011414;28;20448;-74
2023/04/17 00:55:12;;;;;;;24.50;15.40;;;10.50;1.00;;;;;;5007976;28;20213;-74
2023/04/17 00:57:38;;;;;;;22.23;15.17;;;10.50;1.00;;;;;;5012891;28;20433;-74
2023/04/17 01:00:04;;;;;;;20.17;13.60;;;10.50;1.00;;;;;;5009841;28;20893;-72
2023/04/17 01:02:30;;;;;;;23.17;15.57;;;10.50;1.00;;;;;;5009234;28;20266;-72
2023/04/17 01:04:56;;;;;;;18.90;13.80;;;10.50;1.00;;;;;;5013962;28;20503;-72
2023/04/17 01:07:22;;;;;;;20.03;13.53;;;10.90;1.00;;;;;;5010971;28;20591;-73
2023/04/17 01:09:47;;;;;;;22.27;14.27;;;10.40;1.00;;;;;;5010141;28;20183;-73
2023/04/17 01:12:23;;;;;;;22.10;14.00;;;10.50;1.00;;;;;;5011299;28;20179;-72
2023/04/17 01:14:53;;;;;;;22.90;14.83;;;10.50;1.00;;;;;;5011445;28;20202;-73
2023/04/17 01:17:19;;;;;;;20.20;13.20;;;10.40;1.00;;;;;;5010661;28;20954;-73
2023/04/17 01:19:46;;;;;;;23.13;14.33;;;10.40;1.00;;;;;;5012905;28;20580;-73
2023/04/17 01:22:11;;;;;;;22.87;14.50;;;10.50;1.00;;;;;;5010599;28;20503;-73
2023/04/17 01:24:37;;;;;;;23.33;14.23;;;10.50;1.00;;;;;;5012083;28;20456;-73
2023/04/17 01:27:05;;;;;;;26.47;15.00;;;11.50;1.00;;;;;;5018596;28;20174;-73
2023/04/17 01:29:31;;;;;;;22.03;14.60;;;10.60;1.00;;;;;;5010584;28;20178;-73
2023/04/17 01:31:58;;;;;;;24.10;15.40;;;10.50;1.00;;;;;;5011223;28;20795;-73
2023/04/17 01:34:24;;;;;;;21.10;14.63;;;10.50;1.00;;;;;;5012071;28;20203;-73
2023/04/17 01:36:49;;;;;;;21.33;14.30;;;10.50;1.00;;;;;;5011550;28;20945;-73
2023/04/17 01:39:16;;;;;;;24.40;14.83;;;10.50;1.00;;;;;;5014214;28;20692;-73
2023/04/17 01:41:41;;;;;;;24.00;15.20;;;10.50;1.00;;;;;;5011889;28;20656;-73
2023/04/17 01:44:07;;;;;;;22.37;15.37;;;10.50;1.00;;;;;;5011283;28;20548;-72
2023/04/17 01:46:32;;;;;;;21.50;14.63;;;10.50;1.00;;;;;;5013684;28;20183;-71
2023/04/17 01:48:58;;;;;;;24.40;15.40;;;10.50;1.00;;;;;;5010234;28;20174;-72
2023/04/17 01:51:24;;;;;;;23.13;15.10;;;10.40;1.00;;;;;;5011166;28;20179;-73
2023/04/17 01:53:50;;;;;;;22.30;14.70;;;10.50;1.00;;;;;;5008879;28;20445;-73
2023/04/17 01:56:16;;;;;;;24.30;14.70;;;10.50;1.00;;;;;;5009412;28;20183;-73
2023/04/17 01:58:42;;;;;;;22.03;14.10;;;10.60;1.00;;;;;;5010764;28;20277;-73
2023/04/17 02:01:07;;;;;;;21.97;15.00;;;10.60;1.00;;;;;;5012825;28;20572;-73
2023/04/17 02:03:33;;;;;;;22.67;15.07;;;10.60;1.00;;;;;;5007001;28;20182;-73
2023/04/17 02:05:58;;;;;;;23.60;15.20;;;10.60;1.00;;;;;;5011089;28;20199;-73
2023/04/17 02:08:24;;;;;;;21.30;14.40;;;10.50;1.00;;;;;;5009569;28;20182;-73
2023/04/17 02:10:50;;;;;;;21.83;15.10;;;10.50;1.00;;;;;;5011275;28;20179;-73
2023/04/17 02:13:16;;;;;;;21.10;13.90;;;10.50;1.00;;;;;;5010089;28;20194;-73
2023/04/17 02:15:41;;;;;;;22.43;14.00;;;10.50;1.00;;;;;;5025526;28;20499;-73
2023/04/17 02:18:08;;;;;;;25.93;15.57;;;10.50;1.00;;;;;;5011370;28;20190;-73
2023/04/17 02:20:34;;;;;;;25.67;15.60;;;10.50;1.00;;;;;;5017172;28;20572;-73
2023/04/17 02:23:01;;;;;;;20.60;14.10;;;10.50;1.00;;;;;;5017392;28;20441;-73
2023/04/17 02:25:31;;;;;;;22.87;14.83;;;10.50;1.00;;;;;;5010230;28;21195;-73
2023/04/17 02:27:56;;;;;;;24.43;14.97;;;10.40;1.00;;;;;;5009400;28;20892;-73
2023/04/17 02:30:23;;;;;;;22.33;14.93;;;10.40;1.00;;;;;;5009691;28;20907;-74
2023/04/17 02:32:53;;;;;;;23.80;14.60;;;10.30;1.00;;;;;;5008964;28;20261;-74
2023/04/17 02:35:23;;;;;;;21.80;14.97;;;10.30;1.00;;;;;;5010973;28;20572;-72
2023/04/17 02:37:48;;;;;;;25.43;14.97;;;13.90;3.10;;;;;;5006683;28;20441;-73
2023/04/17 02:40:14;;;;;;;22.10;15.03;;;10.30;1.00;;;;;;5012548;28;20469;-73
2023/04/17 02:42:40;;;;;;;26.60;14.83;;;10.30;1.00;;;;;;5009911;28;20178;-73
2023/04/17 02:45:06;;;;;;;21.33;14.80;;;10.30;1.00;;;;;;5006773;28;20505;-74
2023/04/17 02:47:32;;;;;;;25.80;15.40;;;10.30;1.40;;;;;;5009798;28;20186;-73
2023/04/17 02:49:59;;;;;;;23.80;15.30;;;10.30;1.50;;;;;;5010645;28;20445;-73
2023/04/17 02:52:26;;;;;;;24.50;15.80;;;10.20;2.70;;;;;;5009109;28;20568;-74
2023/04/17 02:54:51;;;;;;;23.13;15.00;;;10.20;3.90;;;;;;5006735;28;20461;-74
2023/04/17 02:57:17;;;;;;;23.40;15.33;;;10.20;3.90;;;;;;5008304;28;20434;-72
2023/04/17 02:59:42;;;;;;;22.90;16.10;;;10.20;2.30;;;;;;5013174;28;20256;-73
2023/04/17 03:02:08;;;;;;;21.27;14.97;;;10.20;2.10;;;;;;5007242;28;20277;-73
2023/04/17 03:04:34;;;;;;;20.63;13.93;;;10.20;2.90;;;;;;5009971;28;20681;-73
2023/04/17 03:07:00;;;;;;;19.80;14.30;;;10.20;2.30;;;;;;5007562;28;20187;-73
2023/04/17 03:09:26;;;;;;;25.50;16.13;;;10.20;1.80;;;;;;5008813;28;20426;-73
2023/04/17 03:11:52;;;;;;;25.77;15.30;;;10.20;2.70;;;;;;5010311;28;20233;-73
2023/04/17 03:14:17;;;;;;;23.13;15.17;;;10.30;1.00;;;;;;5009878;28;20449;-73
2023/04/17 03:16:43;;;;;;;23.00;15.30;;;10.20;1.50;;;;;;5009731;28;20178;-74
2023/04/17 03:19:08;;;;;;;26.50;15.17;;;10.30;1.40;;;;;;5011230;28;20243;-73
2023/04/17 03:21:34;;;;;;;21.40;14.73;;;10.20;1.00;;;;;;5010782;28;20238;-74
2023/04/17 03:23:59;;;;;;;23.70;15.63;;;10.30;1.00;;;;;;5006609;28;20226;-72
2023/04/17 03:26:25;;;;;;;22.97;14.30;;;10.30;1.00;;;;;;5009769;28;20174;-73
2023/04/17 03:28:51;;;;;;;21.83;14.00;;;10.30;1.00;;;;;;5012465;28;20190;-73
2023/04/17 03:31:16;;;;;;;25.63;14.20;;;10.30;1.00;;;;;;5009983;28;20302;-74
2023/04/17 03:33:41;;;;;;;20.33;14.97;;;10.30;1.00;;;;;;5008703;28;20179;-73
2023/04/17 03:36:07;;;;;;;20.60;14.17;;;10.30;2.30;;;;;;5007007;28;20188;-74
2023/04/17 03:38:34;;;;;;;21.40;14.80;;;10.30;1.00;;;;;;5009244;28;20205;-73
2023/04/17 03:41:00;;;;;;;21.47;14.07;;;10.30;1.00;;;;;;5009052;28;20693;-71
2023/04/17 03:43:26;;;;;;;20.87;14.40;;;10.40;1.00;;;;;;5009039;28;20504;-73
2023/04/17 03:45:51;;;;;;;22.07;15.00;;;10.30;1.00;;;;;;5008962;28;20198;-73
2023/04/17 03:48:17;;;;;;;23.90;14.67;;;10.40;1.00;;;;;;5008050;28;20309;-73
2023/04/17 03:50:42;;;;;;;21.40;15.20;;;10.30;1.00;;;;;;5010094;28;20586;-73
2023/04/17 03:53:08;;;;;;;20.67;14.93;;;10.40;1.00;;;;;;5008907;28;20273;-72
2023/04/17 03:55:33;;;;;;;21.13;14.83;;;10.30;1.00;;;;;;5004345;28;20219;-72
2023/04/17 03:58:00;;;;;;;23.70;14.30;;;10.30;1.00;;;;;;5007939;28;20182;-72
2023/04/17 04:00:26;;;;;;;22.57;15.20;;;10.30;1.00;;;;;;5009278;28;20751;-73
2023/04/17 04:02:51;;;;;;;21.67;14.40;;;10.30;1.00;;;;;;5007709;28;20971;-73
2023/04/17 04:05:17;;;;;;;23.33;14.60;;;10.30;1.00;;;;;;5009322;28;20437;-73
2023/04/17 04:07:42;;;;;;;22.63;13.90;;;10.30;1.00;;;;;;5008955;28;20269;-73
2023/04/17 04:10:08;;;;;;;24.47;14.50;;;10.30;1.00;;;;;;5009121;28;20197;-73
2023/04/17 04:12:34;;;;;;;21.67;14.80;;;10.30;1.00;;;;;;5008781;28;20188;-73
2023/04/17 04:14:59;;;;;;;21.73;14.30;;;10.30;1.00;;;;;;5005290;28;20453;-73
2023/04/17 04:17:25;;;;;;;21.27;14.73;;;10.30;1.00;;;;;;5009534;28;20175;-72
2023/04/17 04:19:50;;;;;;;24.27;15.10;;;10.20;1.00;;;;;;5007505;28;20256;-73
2023/04/17 04:22:17;;;;;;;22.90;14.47;;;10.20;1.00;;;;;;5006679;28;20305;-73
2023/04/17 04:24:43;;;;;;;25.20;16.00;;;10.10;1.00;;;;;;5008797;28;20225;-73
2023/04/17 04:27:09;;;;;;;24.87;15.80;;;10.10;1.00;;;;;;5008980;28;20959;-73
2023/04/17 04:29:36;;;;;;;22.13;14.80;;;10.10;1.00;;;;;;5009785;28;20186;-73
2023/04/17 04:32:02;;;;;;;22.07;15.40;;;10.00;1.00;;;;;;5007393;28;20186;-73
2023/04/17 04:34:28;;;;;;;27.63;15.20;;;10.00;1.00;;;;;;5004023;28;20456;-73
2023/04/17 04:36:55;;;;;;;22.07;14.93;;;10.00;1.40;;;;;;5008898;28;20433;-70
2023/04/17 04:39:20;;;;;;;15.03;10.30;;;10.10;1.00;;;;;;5008223;28;20445;-74
2023/04/17 04:41:50;;;;;;;22.80;13.00;;;10.40;28.70;;;;;;5008955;28;20464;-74
2023/04/17 04:44:19;;;;;;;22.50;15.55;;;11.00;1.00;;;;;;5004880;28;20746;-74
2023/04/17 04:46:45;;;;;;;24.13;16.10;;;11.00;1.00;;;;;;5007236;28;20190;-74
2023/04/17 04:49:11;;;;;;;23.90;14.83;;;10.80;1.00;;;;;;5007444;28;20437;-71
2023/04/17 04:51:38;;;;;;;21.60;14.87;;;10.70;1.00;;;;;;5007854;28;20524;-73
2023/04/17 04:54:04;;;;;;;20.87;15.27;;;10.60;1.00;;;;;;5008185;28;20596;-72
2023/04/17 04:56:30;;;;;;;23.10;16.00;;;10.50;1.00;;;;;;5008324;28;20441;-74
2023/04/17 04:58:55;;;;;;;22.70;15.67;;;10.40;1.00;;;;;;5008464;28;20449;-73
2023/04/17 05:01:21;;;;;;;20.53;15.20;;;10.40;1.00;;;;;;5007264;28;20292;-73
2023/04/17 05:03:47;;;;;;;24.13;16.20;;;10.30;1.00;;;;;;5018333;28;20202;-73
2023/04/17 05:06:13;;;;;;;25.97;15.47;;;10.30;1.00;;;;;;5009096;28;20269;-74
2023/04/17 05:08:39;;;;;;;25.87;16.03;;;10.20;1.00;;;;;;5008930;28;20178;-72
2023/04/17 05:11:05;;;;;;;24.90;16.50;;;10.10;1.00;;;;;;5005849;28;20433;-74
2023/04/17 05:13:31;;;;;;;26.63;15.57;;;10.20;1.00;;;;;;5009039;28;20464;-73
2023/04/17 05:15:57;;;;;;;27.60;16.57;;;10.20;1.00;;;;;;5008598;28;20485;-73
2023/04/17 05:18:22;;;;;;;26.03;16.60;;;10.20;1.00;;;;;;5006657;28;20186;-73
2023/04/17 05:20:48;;;;;;;24.10;16.43;;;10.30;1.00;;;;;;5008383;28;20630;-74
2023/04/17 05:23:14;;;;;;;28.80;16.90;;;10.30;1.00;;;;;;5005866;28;20539;-73
2023/04/17 05:25:39;;;;;;;24.43;16.37;;;10.30;1.00;;;;;;5006314;28;20275;-74
2023/04/17 05:28:05;;;;;;;30.13;16.70;;;10.40;1.00;;;;;;5006585;28;20241;-73
2023/04/17 05:30:31;;;;;;;25.87;16.30;;;10.50;1.00;;;;;;5009130;28;20178;-72
2023/04/17 05:32:58;;;;;;;25.20;17.10;;;10.60;1.00;;;;;;5011376;28;20515;-73
2023/04/17 05:35:24;;;;;;;25.93;16.67;;;10.60;1.00;;;;;;5011353;28;20233;-74
2023/04/17 05:37:49;;;;;;;23.23;15.60;;;10.70;1.00;;;;;;5010398;28;20456;-74
2023/04/17 05:40:15;;;;;;;22.50;16.03;;;10.70;1.00;;;;;;5010824;28;20276;-74
2023/04/17 05:42:41;;;;;;;25.83;16.20;;;10.50;1.00;;;;;;5011587;28;20210;-73
2023/04/17 05:45:10;;;;;;;29.97;17.40;;;10.80;1.00;;;;;;5010454;28;20665;-74
2023/04/17 05:47:37;;;;;;;28.17;17.50;;;10.80;1.00;;;;;;5010896;28;20433;-73
2023/04/17 05:50:02;;;;;;;25.17;16.93;;;10.80;1.00;;;;;;5007177;28;21216;-73
2023/04/17 05:52:28;;;;;;;29.43;17.50;;;10.80;1.00;;;;;;5013693;28;20448;-74
2023/04/17 05:54:54;;;;;;;27.80;18.70;;;10.80;1.00;;;;;;5009133;28;20228;-73
2023/04/17 05:57:19;;;;;;;27.27;17.50;;;10.80;1.00;;;;;;5010459;28;20183;-73
2023/04/17 05:59:45;;;;;;;27.57;17.80;;;10.80;1.00;;;;;;5011722;28;20213;-73
2023/04/17 06:02:11;;;;;;;28.00;17.87;;;10.90;1.00;;;;;;5009235;28;20210;-74
2023/04/17 06:04:36;;;;;;;28.17;18.03;;;10.90;1.00;;;;;;5011896;28;20480;-73
2023/04/17 06:07:04;;;;;;;27.33;17.40;;;10.90;1.00;;;;;;5009608;28;20185;-73
2023/04/17 06:09:30;;;;;;;23.80;16.53;;;11.00;1.00;;;;;;5012203;28;20262;-72
2023/04/17 06:11:56;;;;;;;32.03;19.33;;;11.10;1.00;;;;;;5012008;28;20461;-74
2023/04/17 06:14:21;;;;;;;28.50;19.30;;;11.30;1.00;;;;;;5010313;28;20465;-74
2023/04/17 06:16:47;;;;;;;29.60;18.13;;;11.30;1.00;;;;;;5011913;28;20222;-74
2023/04/17 06:19:12;;;;;;;30.33;18.33;;;11.40;1.00;;;;;;5009810;28;20568;-75
2023/04/17 06:21:38;;;;;;;29.47;18.80;;;11.60;1.00;;;;;;5010128;28;20206;-74
2023/04/17 06:24:04;;;;;;;23.50;17.10;;;11.80;1.00;;;;;;5010852;28;20213;-74
2023/04/17 06:26:29;;;;;;;26.73;18.50;;;12.10;1.00;;;;;;5010158;28;20181;-74
2023/04/17 06:28:55;;;;;;;29.43;17.80;;;12.20;1.00;;;;;;5011002;28;20538;-74
2023/04/17 06:31:20;;;;;;;26.90;17.70;;;12.50;1.00;;;;;;5010991;28;20178;-75
2023/04/17 06:33:48;;;;;;;28.10;18.90;;;12.80;1.00;;;;;;5010277;28;20186;-75
2023/04/17 06:36:14;;;;;;;29.03;18.63;;;12.80;1.00;;;;;;5013257;28;20241;-74
2023/04/17 06:38:40;;;;;;;26.87;18.70;;;12.90;1.00;;;;;;5011844;28;20429;-75
2023/04/17 06:41:05;;;;;;;33.13;20.30;;;12.80;1.00;;;;;;5009696;28;20292;-74
2023/04/17 06:43:31;;;;;;;29.97;20.53;;;12.80;1.00;;;;;;5006480;28;20193;-74
2023/04/17 06:45:56;;;;;;;28.63;19.30;;;14.60;1.00;;;;;;5005627;28;20226;-73
2023/04/17 06:48:22;;;;;;;28.57;18.80;;;12.80;1.00;;;;;;5008894;28;20268;-74
2023/04/17 06:50:48;;;;;;;30.90;19.87;;;12.80;1.00;;;;;;5009994;28;20193;-73
2023/04/17 06:53:13;;;;;;;28.70;19.53;;;15.50;1.00;;;;;;5009989;28;20195;-73
2023/04/17 06:55:39;;;;;;;29.30;18.93;;;12.70;1.00;;;;;;5010603;28;20453;-73
2023/04/17 06:58:07;;;;;;;26.40;18.77;;;12.60;1.00;;;;;;5010509;28;20210;-73
2023/04/17 07:00:32;;;;;;;26.97;18.70;;;12.60;1.00;;;;;;5009104;28;20202;-74
2023/04/17 07:02:58;;;;;;;27.13;18.53;;;12.80;1.00;;;;;;5007922;28;20512;-74
2023/04/17 07:05:24;;;;;;;26.90;19.07;;;12.80;1.00;;;;;;5010208;28;20206;-75
2023/04/17 07:07:49;;;;;;;29.80;20.07;;;12.60;1.00;;;;;;5022177;28;20557;-74
2023/04/17 07:10:15;;;;;;;25.93;18.83;;;12.80;1.00;;;;;;5009713;28;20400;-73
2023/04/17 07:12:40;;;;;;;30.03;18.93;;;12.80;1.00;;;;;;5007207;28;20266;-74
2023/04/17 07:15:07;;;;;;;28.83;19.17;;;12.90;1.00;;;;;;5010961;28;20333;-74
2023/04/17 07:17:32;;;;;;;26.47;18.30;;;13.00;1.00;;;;;;5010671;28;20190;-73
2023/04/17 07:19:59;;;;;;;25.17;17.20;;;13.00;1.00;;;;;;5010962;28;20473;-74
2023/04/17 07:22:24;;;;;;;25.20;17.23;;;12.90;1.00;;;;;;5009664;28;20256;-74
2023/04/17 07:24:50;;;;;;;25.27;18.23;;;13.00;1.00;;;;;;5010800;28;20936;-74
2023/04/17 07:27:16;;;;;;;29.90;18.30;;;13.10;1.00;;;;;;5009632;28;20190;-74
2023/04/17 07:29:41;;;;;;;29.00;17.80;;;15.20;1.00;;;;;;5012731;28;20209;-73
2023/04/17 07:32:07;;;;;;;25.90;17.80;;;13.30;1.00;;;;;;5009669;28;20944;-72
2023/04/17 07:34:33;;;;;;;25.83;17.60;;;13.30;1.00;;;;;;5009824;28;20331;-72
2023/04/17 07:36:59;;;;;;;22.20;16.23;;;15.20;1.00;;;;;;5001586;28;20246;-73
2023/04/17 07:39:29;;;;;;;26.40;16.83;;;13.50;1.00;;;;;;5008555;28;20182;-75
2023/04/17 07:41:55;;;;;;;26.07;16.80;;;13.60;1.00;;;;;;5009310;28;20442;-74
2023/04/17 07:44:21;;;;;;;25.00;16.37;;;13.80;1.00;;;;;;5005999;28;20551;-75
2023/04/17 07:46:46;;;;;;;25.27;16.27;;;14.00;1.00;;;;;;5010199;28;20536;-74
2023/04/17 07:49:12;;;;;;;23.97;16.90;;;14.20;1.00;;;;;;5009488;28;20182;-75
2023/04/17 07:51:39;;;;;;;20.60;15.20;;;14.40;1.00;;;;;;5006632;28;20175;-74
2023/04/17 07:54:05;;;;;;;21.40;16.03;;;14.60;1.00;;;;;;5008216;28;20683;-77
2023/04/17 07:56:33;;;;;;;22.00;15.80;;;14.90;1.00;;;;;;5008005;28;20429;-73
2023/04/17 07:58:59;;;;;;;21.93;15.47;;;15.30;1.00;;;;;;5007086;28;20245;-74
2023/04/17 08:01:25;;;;;;;20.43;15.23;;;15.70;1.00;;;;;;5008814;28;20562;-74
2023/04/17 08:03:51;;;;;;;19.90;15.40;;;16.00;1.00;;;;;;5013541;28;20183;-74
2023/04/17 08:06:17;;;;;;;19.23;14.67;;;16.00;1.00;;;;;;5005694;28;20433;-74
2023/04/17 08:08:46;;;;;;;18.53;14.67;;;16.10;1.00;;;;;;5006769;28;20437;-74
2023/04/17 08:11:15;;;;;;;22.90;16.83;;;16.10;1.00;;;;;;5008266;28;20183;-74
2023/04/17 08:13:41;;;;;;;19.83;15.83;;;;;;;;;;5005611;28;20429;-74
2023/04/17 08:16:07;;;;;;;20.27;15.10;;;16.40;1.00;;;;;;5001519;28;20536;-74
2023/04/17 08:18:36;;;;;;;18.83;14.80;;;16.70;1.00;;;;;;5006731;28;20241;-74
2023/04/17 08:21:02;;;;;;;19.23;14.37;;;16.40;1.00;;;;;;5004826;28;20540;-72
2023/04/17 08:23:28;;;;;;;20.10;14.90;;;16.40;1.00;;;;;;5006972;28;20445;-74
2023/04/17 08:25:54;;;;;;;17.57;13.10;;;16.40;1.00;;;;;;5006928;28;20440;-73
2023/04/17 08:28:20;;;;;;;15.13;12.27;;;16.10;1.00;;;;;;5002506;28;20742;-72
2023/04/17 08:30:45;;;;;;;16.63;12.27;;;16.10;1.00;;;;;;5007344;28;20174;-73
2023/04/17 08:33:12;;;;;;;18.67;12.97;;;15.90;1.00;;;;;;5006238;28;20516;-73
2023/04/17 08:35:37;;;;;;;16.33;12.30;;;15.70;1.00;;;;;;5008259;28;20194;-73
2023/04/17 08:38:03;;;;;;;15.90;12.10;;;15.60;1.00;;;;;;5008950;28;20928;-74
2023/04/17 08:40:28;;;;;;;17.80;12.30;;;15.40;1.00;;;;;;5008738;28;20644;-74
2023/04/17 08:42:54;;;;;;;16.53;12.97;;;15.30;1.00;;;;;;5008844;28;20653;-74
2023/04/17 08:45:22;;;;;;;17.17;13.67;;;15.40;1.00;;;;;;5008835;28;20833;-74
2023/04/17 08:47:48;;;;;;;24.77;13.93;;;15.30;1.00;;;;;;5010058;28;20186;-74
2023/04/17 08:50:16;;;;;;;15.33;12.00;;;15.10;1.00;;;;;;5007226;28;20866;-73
2023/04/17 08:52:43;;;;;;;16.60;12.63;;;15.30;1.00;;;;;;5007994;28;20190;-73
2023/04/17 08:55:12;;;;;;;16.77;12.67;;;15.60;1.00;;;;;;5008749;28;20514;-75
2023/04/17 08:57:57;;;;;;;18.63;12.23;;;15.90;1.00;;;;;;5008029;28;20548;-74
2023/04/17 09:00:35;;;;;;;15.80;11.47;;;16.70;1.00;;;;;;5006937;28;20843;-74
2023/04/17 09:03:03;;;;;;;13.67;11.63;;;17.40;1.00;;;;;;5003055;28;20460;-74
2023/04/17 09:05:35;;;;;;;14.40;11.13;;;18.10;1.00;;;;;;5010109;28;20516;-75
2023/04/17 09:08:07;;;;;;;16.43;12.20;;;18.60;1.00;;;;;;5012245;28;20428;-74
2023/04/17 09:10:38;;;;;;;13.60;11.00;;;19.20;1.00;;;;;;5008876;28;20487;-75
2023/04/17 09:13:04;;;;;;;14.90;11.20;;;19.40;1.00;;;;;;5012563;28;20429;-74
2023/04/17 09:15:30;;;;;;;13.70;10.70;;;19.90;1.00;;;;;;5012360;28;20449;-75
2023/04/17 09:17:55;;;;;;;12.17;10.00;;;20.00;1.00;;;;;;5012831;28;20425;-74
2023/04/17 09:20:21;;;;;;;12.07;9.10;;;20.50;1.00;;;;;;5011728;28;20978;-73
2023/04/17 09:22:46;;;;;;;12.33;9.33;;;20.30;1.00;;;;;;5010943;28;20596;-73
2023/04/17 09:25:18;;;;;;;12.43;8.93;;;19.70;1.00;;;;;;5011361;28;20618;-73
2023/04/17 09:27:45;;;;;;;11.43;8.70;;;19.30;1.00;;;;;;5012516;28;20171;-73
2023/04/17 09:30:12;;;;;;;12.93;9.13;;;18.90;1.00;;;;;;5011642;28;20524;-74
2023/04/17 09:32:39;;;;;;;11.70;9.40;;;18.50;1.00;;;;;;5011401;28;20437;-75
2023/04/17 09:35:05;;;;;;;10.50;8.70;;;18.20;1.00;;;;;;5011655;28;20812;-75
2023/04/17 09:38:00;;;;;;;11.30;8.53;;;17.90;1.00;;;;;;5011533;28;20895;-74
2023/04/17 09:40:35;;;;;;;11.40;8.67;;;17.80;1.00;;;;;;5010405;28;21023;-76
2023/04/17 09:43:02;;;;;;;12.20;8.50;;;17.80;1.00;;;;;;5010245;28;20479;-73
2023/04/17 09:45:38;;;;;;;11.30;8.03;;;17.90;1.00;;;;;;5011264;28;22464;-74
2023/04/17 09:48:07;;;;;;;11.20;8.43;;;17.90;1.00;;;;;;5012110;28;20429;-74
2023/04/17 09:50:34;;;;;;;13.27;8.30;;;17.80;1.00;;;;;;5011019;28;20433;-74
2023/04/17 09:53:00;;;;;;;9.90;7.30;;;17.70;1.00;;;;;;5011322;28;20472;-74
2023/04/17 09:55:29;;;;;;;9.40;7.43;;;17.50;1.00;;;;;;5012589;28;20448;-75
2023/04/17 09:57:56;;;;;;;8.57;7.53;;;17.40;1.00;;;;;;5011850;28;20433;-75
2023/04/17 10:00:25;;;;;;;10.67;7.33;;;17.40;1.00;;;;;;5010632;28;20539;-72
2023/04/17 10:02:52;;;;;;;8.53;7.10;;;17.20;1.00;;;;;;5011307;28;20429;-74
2023/04/17 10:05:19;;;;;;;9.53;6.83;;;17.10;1.00;;;;;;5010831;28;20503;-76
2023/04/17 10:07:45;;;;;;;9.00;7.00;;;17.20;1.00;;;;;;5007765;28;20452;-73
2023/04/17 10:10:21;;;;;;;9.40;7.70;;;17.20;1.00;;;;;;5012930;28;20441;-74
2023/04/17 10:12:48;;;;;;;9.10;7.30;;;17.20;1.00;;;;;;5013053;28;20851;-73
2023/04/17 10:15:15;;;;;;;11.67;8.80;;;17.50;1.00;;;;;;5013346;28;20824;-73
2023/04/17 10:17:40;;;;;;;10.23;8.13;;;17.90;1.00;;;;;;5013490;28;20425;-73
2023/04/17 10:20:21;;;;;;;11.00;7.47;;;18.10;1.00;;;;;;5010332;28;20496;-75
2023/04/17 10:22:55;;;;;;;11.90;8.70;;;18.10;1.00;;;;;;5009069;28;20167;-73
2023/04/17 10:25:21;;;;;;;10.40;8.10;;;17.60;1.00;;;;;;5009212;28;20456;-72
2023/04/17 10:27:49;;;;;;;9.27;7.80;;;17.40;1.00;;;;;;5012743;28;20441;-73
2023/04/17 10:30:16;;;;;;;9.17;7.90;;;15.70;1.00;;;;;;5009516;28;20178;-73
2023/04/17 10:32:44;;;;;;;12.33;8.30;;;16.80;1.00;;;;;;5008765;28;20528;-72
2023/04/17 10:35:16;;;;;;;9.90;7.60;;;16.50;1.00;;;;;;5007094;28;20449;-74
2023/04/17 10:37:50;;;;;;;10.37;7.93;;;16.40;1.00;;;;;;5009032;28;20433;-73
2023/04/17 10:40:20;;;;;;;10.23;7.63;;;16.30;1.00;;;;;;5008545;28;20814;-73
2023/04/17 10:43:16;;;;;;;9.57;7.60;;;16.40;1.00;;;;;;5011026;28;20436;-72
2023/04/17 10:46:02;;;;;;;9.93;8.10;;;16.50;1.00;;;;;;5011729;28;20540;-73
2023/04/17 10:48:37;;;;;;;11.00;7.50;;;16.70;1.00;;;;;;5011314;28;20432;-75
2023/04/17 10:51:25;;;;;;;9.83;8.10;;;16.80;1.00;;;;;;5010439;28;20784;-73
2023/04/17 10:53:55;;;;;;;10.40;7.87;;;16.90;1.00;;;;;;5006628;28;20430;-71
2023/04/17 10:56:37;;;;;;;10.80;8.57;;;16.90;1.00;;;;;;5011813;28;20433;-75
2023/04/17 10:59:05;;;;;;;12.10;8.17;;;16.80;1.00;;;;;;5011737;28;20481;-73
2023/04/17 11:01:37;;;;;;;13.43;7.70;;;16.60;1.00;;;;;;5010798;28;20502;-73
2023/04/17 11:04:07;;;;;;;9.17;7.47;;;16.50;1.00;;;;;;5010695;28;20543;-75
2023/04/17 11:06:39;;;;;;;9.40;7.70;;;16.30;1.00;;;;;;5009401;28;20433;-74
2023/04/17 11:09:09;;;;;;;9.37;7.73;;;16.10;1.00;;;;;;5011597;28;20524;-74
2023/04/17 11:11:42;;;;;;;9.90;7.43;;;16.10;1.00;;;;;;5009272;28;20520;-74
2023/04/17 11:14:09;;;;;;;9.97;6.80;;;16.20;1.00;;;;;;5010351;28;20457;-74
2023/04/17 11:16:40;;;;;;;9.70;7.33;;;16.30;1.00;;;;;;5008661;28;20447;-73
2023/04/17 11:19:11;;;;;;;9.60;7.60;;;16.30;1.00;;;;;;5003801;28;20421;-73
2023/04/17 11:21:44;;;;;;;9.00;7.13;;;16.20;1.00;;;;;;5010038;28;20465;-73
2023/04/17 11:24:10;;;;;;;9.93;7.33;;;16.10;1.00;;;;;;5011306;28;20529;-72
2023/04/17 11:26:46;;;;;;;9.57;7.37;;;16.10;1.00;;;;;;5010303;28;20425;-73
2023/04/17 11:29:22;;;;;;;11.00;7.23;;;16.10;1.00;;;;;;5011649;28;20186;-73
2023/04/17 11:31:50;;;;;;;11.40;7.50;;;16.10;1.00;;;;;;5010279;28;20431;-73
2023/04/17 11:34:15;;;;;;;8.20;6.63;;;16.10;1.00;;;;;;5010989;28;20440;-73
2023/04/17 11:36:51;;;;;;;7.97;6.30;;;16.10;1.00;;;;;;5010479;28;20440;-72
2023/04/17 11:39:18;;;;;;;10.33;6.90;;;16.10;1.00;;;;;;5011334;28;20178;-72
2023/04/17 11:41:45;;;;;;;10.03;6.97;;;16.00;1.00;;;;;;5009788;28;20492;-74
2023/04/17 11:44:16;;;;;;;10.73;6.77;;;16.00;1.00;;;;;;5010424;28;20496;-73
2023/04/17 11:46:41;;;;;;;7.17;6.33;;;16.10;1.00;;;;;;5010953;28;20839;-73
2023/04/17 11:49:07;;;;;;;8.70;7.03;;;16.20;1.00;;;;;;5009227;28;20425;-73
2023/04/17 11:51:33;;;;;;;7.70;6.20;;;16.30;1.00;;;;;;5009999;28;20190;-73
2023/04/17 11:53:59;;;;;;;9.07;6.17;;;16.50;1.00;;;;;;5011089;28;20190;-75
2023/04/17 11:56:27;;;;;;;5.03;4.53;;;16.50;1.00;;;;;;5008684;28;20178;-73
2023/04/17 11:58:54;;;;;;;4.53;3.93;;;16.40;1.00;;;;;;5010206;28;20441;-72
2023/04/17 12:01:23;;;;;;;6.37;4.20;;;16.10;1.00;;;;;;5010472;28;20468;-73
2023/04/17 12:03:49;;;;;;;4.07;3.53;;;15.70;1.00;;;;;;5003912;28;20544;-73
2023/04/17 12:06:15;;;;;;;7.53;4.10;;;15.70;1.00;;;;;;5010762;28;20428;-72
2023/04/17 12:08:52;;;;;;;6.77;4.10;;;15.70;1.00;;;;;;5009679;28;20437;-74
2023/04/17 12:11:23;;;;;;;8.03;4.00;;;15.70;1.00;;;;;;5009730;28;20432;-74
2023/04/17 12:13:54;;;;;;;5.07;3.80;;;15.80;1.00;;;;;;5008881;28;20553;-74
2023/04/17 12:16:20;;;;;;;8.63;3.67;;;15.80;1.00;;;;;;5009298;28;20429;-73
2023/04/17 12:18:45;;;;;;;13.53;4.53;;;15.90;1.00;;;;;;5010623;28;20429;-74
2023/04/17 12:21:12;;;;;;;5.43;4.17;;;16.00;1.00;;;;;;5009546;28;20464;-74
2023/04/17 12:23:37;;;;;;;4.93;3.57;;;16.20;1.00;;;;;;5009522;28;20178;-74
2023/04/17 12:26:03;;;;;;;7.67;3.67;;;16.30;1.00;;;;;;5008839;28;20480;-74
2023/04/17 12:28:29;;;;;;;4.50;3.80;;;16.60;1.00;;;;;;5008626;28;20529;-74
2023/04/17 12:30:55;;;;;;;7.93;4.60;;;16.80;1.00;;;;;;5010365;28;20178;-74
2023/04/17 12:33:20;;;;;;;4.93;3.77;;;19.60;1.00;;;;;;5010616;28;20424;-73
2023/04/17 12:35:46;;;;;;;5.37;4.60;;;17.30;1.00;;;;;;5008722;28;20207;-73
2023/04/17 12:38:12;;;;;;;5.20;4.40;;;17.70;1.00;;;;;;5010384;28;20210;-73
2023/04/17 12:40:41;;;;;;;5.60;4.87;;;17.90;1.00;;;;;;5010276;28;20210;-74